Time;durP1;ratioP1;P1;durP2;ratioP2;P2;SDS_P1;SDS_P2;PMS_P1;PMS_P2;Temp;Humidity;BMP_temperature;BMP_pressure;BME280_temperature;BME280_humidity;BME280_pressure;Samples;Min_cycle;Max_cycle;Signal;HPM_P1;HPM_P2
2020/02/10 00:00:47;;;;;;;3.7;1.7;;;;;;;10.27;41.47363;947.2148;;;;
2020/02/10 00:03:12;;;;;;;3.3;1.4;;;;;;;10.31;41.45313;946.986;;;;
2020/02/10 00:05:37;;;;;;;3;1.5;;;;;;;10.3;41.38379;946.925;;;;
2020/02/10 00:08:02;;;;;;;4.2;1.6;;;;;;;10.38;41.06934;947.1943;;;;
2020/02/10 00:10:43;;;;;;;5.6;2.2;;;;;;;10.33;41.30566;947.3557;;;;
2020/02/10 00:13:08;;;;;;;4.7;3.2;;;;;;;10.23;41.66406;947.4702;;;;
2020/02/10 00:15:33;;;;;;;4.5;2.5;;;;;;;10.2;41.63867;947.502;;;;
2020/02/10 00:18:24;;;;;;;3.6;2.3;;;;;;;10.42;40.94629;947.3345;;;;
2020/02/10 00:20:35;;;;;;;4.9;2.3;;;;;;;10.54;40.64648;947.3084;;;;
2020/02/10 00:23:12;;;;;;;4.6;2.4;;;;;;;10.5;41.04688;947.2392;;;;
2020/02/10 00:25:37;;;;;;;3.8;2.6;;;;;;;10.6;40.9873;947.3611;;;;
2020/02/10 00:28:02;;;;;;;3.5;2;;;;;;;10.67;40.85449;947.5289;;;;
2020/02/10 00:30:28;;;;;;;4;2.4;;;;;;;10.65;41.26758;947.5248;;;;
2020/02/10 00:32:53;;;;;;;3.8;2.2;;;;;;;10.94;40.52441;947.5643;;;;
2020/02/10 00:35:18;;;;;;;5.6;2.6;;;;;;;11.05;40.68359;947.6025;;;;
2020/02/10 00:37:43;;;;;;;3.4;1.8;;;;;;;11.03;40.64648;947.3383;;;;
2020/02/10 00:40:08;;;;;;;3.5;1.9;;;;;;;11.19;40.89258;947.1815;;;;
2020/02/10 00:42:33;;;;;;;5.2;1.7;;;;;;;11.41;40.84473;947.0491;;;;
2020/02/10 00:44:58;;;;;;;2.4;1.6;;;;;;;11.55;40.9043;947.1155;;;;
2020/02/10 00:47:23;;;;;;;2.6;1.3;;;;;;;11.48;41.66992;947.1531;;;;
2020/02/10 00:49:48;;;;;;;2.7;1.1;;;;;;;11.56;42.0918;947.0525;;;;
2020/02/10 00:52:14;;;;;;;5.4;1.3;;;;;;;11.67;42.14941;946.6701;;;;
2020/02/10 00:54:39;;;;;;;3;1.1;;;;;;;11.7;42.56836;946.6602;;;;
2020/02/10 00:57:05;;;;;;;2.7;1.1;;;;;;;11.82;42.63672;946.9165;;;;
2020/02/10 00:59:30;;;;;;;2.7;1;;;;;;;11.85;43.42578;946.7867;;;;
2020/02/10 01:01:55;;;;;;;4.2;1.3;;;;;;;11.86;44.02734;946.4649;;;;
2020/02/10 01:04:20;;;;;;;3.7;1.3;;;;;;;11.87;44.00391;946.5162;;;;
2020/02/10 01:06:45;;;;;;;3.4;1;;;;;;;11.9;43.85742;946.3748;;;;
2020/02/10 01:09:10;;;;;;;2.7;1.1;;;;;;;11.86;44.38477;946.4453;;;;
2020/02/10 01:12:04;;;;;;;3.1;1.3;;;;;;;11.93;44.05664;946.3084;;;;
2020/02/10 01:14:29;;;;;;;4.8;1.3;;;;;;;12.02;43.71973;946.2986;;;;
2020/02/10 01:16:54;;;;;;;4.2;1;;;;;;;12.07;44.22168;946.1301;;;;
2020/02/10 01:19:20;;;;;;;3.1;1;;;;;;;12.03;44.13477;946.2067;;;;
2020/02/10 01:21:45;;;;;;;3.6;1.1;;;;;;;12.05;44.1377;946.2299;;;;
2020/02/10 01:24:10;;;;;;;2.9;1.1;;;;;;;11.97;44.43066;946.2789;;;;
2020/02/10 01:26:35;;;;;;;4.7;1.2;;;;;;;11.99;44.60547;945.9667;;;;
2020/02/10 01:29:00;;;;;;;4.8;1.2;;;;;;;12.12;44.35449;945.9135;;;;
2020/02/10 01:31:25;;;;;;;2.2;1.1;;;;;;;12.06;45.02832;946.0961;;;;
2020/02/10 01:33:50;;;;;;;3.5;1;;;;;;;12.12;44.9541;946.1904;;;;
2020/02/10 01:36:15;;;;;;;3;1.1;;;;;;;12.17;45.41016;946.0663;;;;
2020/02/10 01:38:40;;;;;;;2.6;1.1;;;;;;;12.12;45.82129;946.049;;;;
2020/02/10 01:41:12;;;;;;;4.4;1.1;;;;;;;11.98;46.11719;945.8198;;;;
2020/02/10 01:43:41;;;;;;;3;1.1;;;;;;;12.06;46.23047;945.8086;;;;
2020/02/10 01:46:04;;;;;;;2.8;1.2;;;;;;;12.12;46.38574;945.631;;;;
2020/02/10 01:48:22;;;;;;;1.8;0.9;;;;;;;12.03;46.86133;945.7583;;;;
2020/02/10 01:50:47;;;;;;;3.3;1.3;;;;;;;11.99;47.53906;945.6116;;;;
2020/02/10 01:53:12;;;;;;;2.7;1.1;;;;;;;12.03;47.36914;945.8;;;;
2020/02/10 01:55:37;;;;;;;2.4;1.2;;;;;;;12.06;47.97363;945.8732;;;;
2020/02/10 01:58:02;;;;;;;4.3;1.2;;;;;;;12.04;48.19141;945.6944;;;;
2020/02/10 02:00:27;;;;;;;3;1.2;;;;;;;12.12;48.07227;945.7642;;;;
2020/02/10 02:03:01;;;;;;;1.7;1.1;;;;;;;12.14;48.08691;945.7015;;;;
2020/02/10 02:05:26;;;;;;;1.5;0.9;;;;;;;12.08;48.3916;945.4891;;;;
2020/02/10 02:07:51;;;;;;;2.1;1;;;;;;;12.2;48.41602;945.5508;;;;
2020/02/10 02:10:17;;;;;;;3.6;1;;;;;;;12.18;48.48242;945.1616;;;;
2020/02/10 02:12:42;;;;;;;1.9;1;;;;;;;12.22;48.80078;945.1446;;;;
2020/02/10 02:15:07;;;;;;;2.2;1;;;;;;;12.32;49.42285;945.3445;;;;
2020/02/10 02:17:32;;;;;;;3.6;1.3;;;;;;;12.32;49.6543;945.1967;;;;
2020/02/10 02:19:57;;;;;;;3.1;1;;;;;;;12.36;49.95996;945.3164;;;;
2020/02/10 02:22:22;;;;;;;3.8;1.4;;;;;;;12.42;50.40625;945.4408;;;;
2020/02/10 02:24:49;;;;;;;3.5;1.3;;;;;;;12.65;51.77344;945.509;;;;
2020/02/10 02:29:42;;;;;;;2.7;1.3;;;;;;;12.57;52.16895;945.4007;;;;
2020/02/10 02:33:33;;;;;;;2.8;1.1;;;;;;;12.58;52.66699;945.2224;;;;
2020/02/10 02:40:56;;;;;;;2.6;1.2;;;;;;;12.67;54.28613;944.9841;;;;
2020/02/10 02:43:19;;;;;;;2.7;1;;;;;;;12.6;54.48535;944.6819;;;;
2020/02/10 02:45:44;;;;;;;3.7;0.9;;;;;;;12.69;54.6709;944.7838;;;;
2020/02/10 02:48:09;;;;;;;2.1;0.8;;;;;;;12.79;54.90234;944.9099;;;;
2020/02/10 02:50:35;;;;;;;2.4;0.8;;;;;;;12.83;55.82129;944.7261;;;;
2020/02/10 02:53:00;;;;;;;3.2;1;;;;;;;12.89;56.28027;944.6223;;;;
2020/02/10 02:55:25;;;;;;;3.3;1;;;;;;;12.82;56.3418;944.3585;;;;
2020/02/10 02:57:50;;;;;;;2.5;0.9;;;;;;;12.88;56.53418;944.5472;;;;
2020/02/10 03:00:16;;;;;;;1.9;0.9;;;;;;;12.89;56.71973;944.7173;;;;
2020/02/10 03:02:42;;;;;;;2;1;;;;;;;12.81;56.99902;944.6701;;;;
2020/02/10 03:05:07;;;;;;;2.2;0.9;;;;;;;12.75;57.78906;944.617;;;;
2020/02/10 03:07:33;;;;;;;2.3;0.8;;;;;;;12.84;57.92773;944.7867;;;;
2020/02/10 03:09:58;;;;;;;1.9;0.8;;;;;;;12.72;58.3418;944.5397;;;;
2020/02/10 03:12:23;;;;;;;1.4;0.8;;;;;;;12.65;58.74707;944.5488;;;;
2020/02/10 03:14:48;;;;;;;1.5;0.9;;;;;;;12.75;59.00293;944.3081;;;;
2020/02/10 03:17:13;;;;;;;2.6;0.9;;;;;;;12.79;59.32227;944.7358;;;;
2020/02/10 03:19:38;;;;;;;3.2;0.9;;;;;;;12.85;59.58496;944.3777;;;;
2020/02/10 03:22:03;;;;;;;2.9;0.8;;;;;;;12.82;59.83496;944.7043;;;;
2020/02/10 03:24:28;;;;;;;2;0.8;;;;;;;12.83;60.25195;944.5685;;;;
2020/02/10 03:26:53;;;;;;;4.2;0.9;;;;;;;12.76;60.81055;944.4197;;;;
2020/02/10 03:29:19;;;;;;;2;0.8;;;;;;;12.73;61.28125;944.2632;;;;
2020/02/10 03:31:45;;;;;;;2;0.8;;;;;;;12.9;61.40918;944.287;;;;
2020/02/10 03:34:10;;;;;;;1.8;0.6;;;;;;;12.97;61.3252;944.3914;;;;
2020/02/10 03:36:35;;;;;;;2.6;0.7;;;;;;;12.97;61.83398;944.0594;;;;
2020/02/10 03:39:00;;;;;;;2;0.7;;;;;;;12.89;62.4375;944.4041;;;;
2020/02/10 03:41:42;;;;;;;2.8;0.7;;;;;;;13.05;62.27441;944.4655;;;;
2020/02/10 03:44:07;;;;;;;1.6;0.7;;;;;;;12.98;62.65918;944.3349;;;;
2020/02/10 03:46:32;;;;;;;1.9;0.6;;;;;;;12.97;63.13086;944.2736;;;;
2020/02/10 03:48:57;;;;;;;3.1;0.7;;;;;;;12.86;63.60059;944.4689;;;;
2020/02/10 03:51:22;;;;;;;2.3;0.8;;;;;;;12.91;63.89648;944.4095;;;;
2020/02/10 03:53:47;;;;;;;1.5;0.6;;;;;;;12.92;64.10742;944.3408;;;;
2020/02/10 03:56:12;;;;;;;3.2;0.6;;;;;;;13;64.0498;944.3655;;;;
2020/02/10 03:58:38;;;;;;;3;0.6;;;;;;;13.01;64.21387;944.3131;;;;
2020/02/10 04:02:38;;;;;;;1;0.6;;;;;;;13.07;64.7998;944.4127;;;;
2020/02/10 04:05:02;;;;;;;3.4;0.6;;;;;;;13.16;64.8252;944.3107;;;;
2020/02/10 04:07:18;;;;;;;2.4;0.7;;;;;;;13.13;65.13379;944.33;;;;
2020/02/10 04:09:43;;;;;;;2.3;0.6;;;;;;;13.36;64.57813;944.113;;;;
2020/02/10 04:12:08;;;;;;;1.9;0.5;;;;;;;13.22;65.27441;944.0496;;;;
2020/02/10 04:14:33;;;;;;;3.3;0.7;;;;;;;13.43;64.63379;944.0097;;;;
2020/02/10 04:17:00;;;;;;;3;0.8;;;;;;;13.4;64.89551;943.8498;;;;
2020/02/10 04:19:32;;;;;;;2;0.6;;;;;;;13.32;65.18555;943.8137;;;;
2020/02/10 04:22:11;;;;;;;2.6;0.6;;;;;;;13.43;65.12012;943.8232;;;;
2020/02/10 04:29:12;;;;;;;1.6;0.6;;;;;;;13.17;66.44727;943.9861;;;;
2020/02/10 04:31:38;;;;;;;4.6;0.7;;;;;;;13.1;66.76172;943.8334;;;;
2020/02/10 04:34:05;;;;;;;2;0.6;;;;;;;13.43;65.6875;943.7396;;;;
2020/02/10 04:36:35;;;;;;;1.4;0.6;;;;;;;13.33;66.00977;943.5874;;;;
2020/02/10 04:39:00;;;;;;;1;0.5;;;;;;;13.2;66.25586;943.5151;;;;
2020/02/10 04:41:31;;;;;;;1.8;0.5;;;;;;;13.26;66.125;943.7575;;;;
2020/02/10 04:43:35;;;;;;;1.8;0.5;;;;;;;13.28;66.08203;943.4836;;;;
2020/02/10 04:46:00;;;;;;;2.8;0.6;;;;;;;13.31;66.0293;943.6396;;;;
2020/02/10 04:48:26;;;;;;;3.3;0.7;;;;;;;13.38;65.61035;943.3045;;;;
2020/02/10 04:50:51;;;;;;;4.7;0.8;;;;;;;13.36;66.53516;943.4167;;;;
2020/02/10 04:53:16;;;;;;;2.5;0.5;;;;;;;13.52;65.79395;943.8108;;;;
2020/02/10 04:55:41;;;;;;;1.9;0.4;;;;;;;13.19;71.16406;943.3861;;;;
2020/02/10 04:58:06;;;;;;;1.6;0.5;;;;;;;13.31;69.59473;943.5887;;;;
2020/02/10 05:00:31;;;;;;;2.7;0.5;;;;;;;13.24;70.19922;943.5218;;;;
2020/02/10 05:02:57;;;;;;;1.3;0.5;;;;;;;13.2;71.33789;943.3647;;;;
2020/02/10 05:05:21;;;;;;;1.5;0.5;;;;;;;13.29;69.75586;943.3208;;;;
2020/02/10 05:07:46;;;;;;;3.7;0.6;;;;;;;13.24;69.96875;943.4324;;;;
2020/02/10 05:10:12;;;;;;;3.8;0.7;;;;;;;13.41;68.33789;943.4366;;;;
2020/02/10 05:12:37;;;;;;;2.2;0.4;;;;;;;13.46;67.90625;943.1998;;;;
2020/02/10 05:15:02;;;;;;;2;0.5;;;;;;;13.54;66.44727;943.3881;;;;
2020/02/10 05:17:27;;;;;;;2.7;0.4;;;;;;;13.64;65.66211;943.4116;;;;
2020/02/10 05:19:52;;;;;;;1.3;0.4;;;;;;;13.74;65.03906;943.5881;;;;
2020/02/10 05:22:17;;;;;;;2.7;0.5;;;;;;;13.86;63.94531;943.1273;;;;
2020/02/10 05:24:42;;;;;;;1.8;0.4;;;;;;;13.86;63.57422;943.1372;;;;
2020/02/10 05:27:07;;;;;;;3;0.5;;;;;;;13.9;62.91797;942.8922;;;;
2020/02/10 05:29:33;;;;;;;2;0.4;;;;;;;13.9;63.10352;943.2451;;;;
2020/02/10 05:31:58;;;;;;;1.9;0.5;;;;;;;13.58;67.13672;943.1025;;;;
2020/02/10 05:34:23;;;;;;;1.7;0.4;;;;;;;13.39;67.61719;943.2853;;;;
2020/02/10 05:36:48;;;;;;;3.7;0.5;;;;;;;13.51;66.36035;943.0173;;;;
2020/02/10 05:39:13;;;;;;;1.8;0.4;;;;;;;13.39;67.01367;943.0613;;;;
2020/02/10 05:41:39;;;;;;;3.9;0.6;;;;;;;13.57;65.39648;943.3753;;;;
2020/02/10 05:44:04;;;;;;;1.9;0.5;;;;;;;13.53;64.73047;942.9472;;;;
2020/02/10 05:46:29;;;;;;;3.2;0.5;;;;;;;13.54;64.38477;942.8536;;;;
2020/02/10 05:48:54;;;;;;;1.4;0.5;;;;;;;13.59;64.25195;943.1483;;;;
2020/02/10 05:51:19;;;;;;;1.5;0.6;;;;;;;13.5;65.05078;942.902;;;;
2020/02/10 05:53:45;;;;;;;3.3;0.7;;;;;;;13.42;65.80273;943.051;;;;
2020/02/10 05:56:10;;;;;;;4.7;0.6;;;;;;;13.5;65.19043;943.0388;;;;
2020/02/10 05:58:35;;;;;;;2;0.6;;;;;;;13.45;65.54102;943.2671;;;;
2020/02/10 06:01:00;;;;;;;2.8;0.5;;;;;;;13.45;65.28613;943.4731;;;;
2020/02/10 06:03:25;;;;;;;2.2;0.4;;;;;;;13.32;66.01953;943.092;;;;
2020/02/10 06:05:51;;;;;;;1.3;0.5;;;;;;;13.21;66.62988;943.1434;;;;
2020/02/10 06:08:16;;;;;;;3.2;0.5;;;;;;;13.25;66.55273;943.124;;;;
2020/02/10 06:10:41;;;;;;;3.7;0.5;;;;;;;13.29;66.44336;943.4353;;;;
2020/02/10 06:13:06;;;;;;;2.2;0.5;;;;;;;13.22;66.82617;943.6057;;;;
2020/02/10 06:15:31;;;;;;;1.4;0.6;;;;;;;13.22;66.74512;943.5452;;;;
2020/02/10 06:17:56;;;;;;;2;0.6;;;;;;;13.17;67.32715;944.0276;;;;
2020/02/10 06:20:22;;;;;;;3.3;0.7;;;;;;;13.12;67.53906;943.7888;;;;
2020/02/10 06:22:47;;;;;;;2.1;0.6;;;;;;;13.09;67.63867;943.4827;;;;
2020/02/10 06:25:31;;;;;;;2.9;0.5;;;;;;;13.05;68.0498;943.7647;;;;
2020/02/10 06:35:22;;;;;;;2;0.5;;;;;;;12.86;69.1875;943.8697;;;;
2020/02/10 06:37:51;;;;;;;2.3;0.6;;;;;;;12.76;70.6416;943.9744;;;;
2020/02/10 06:40:11;;;;;;;1.9;0.4;;;;;;;12.49;72.99023;943.6938;;;;
2020/02/10 06:42:37;;;;;;;2.1;0.6;;;;;;;12.17;77.28027;943.8297;;;;
2020/02/10 06:45:01;;;;;;;2.7;0.5;;;;;;;11.99;80.7832;943.9119;;;;
2020/02/10 06:47:23;;;;;;;2.3;0.6;;;;;;;11.89;81.45605;943.9794;;;;
2020/02/10 06:49:56;;;;;;;1.5;0.6;;;;;;;11.69;84.44141;943.8187;;;;
2020/02/10 06:52:20;;;;;;;1.5;0.6;;;;;;;11.75;83.95801;944.3681;;;;
2020/02/10 06:54:57;;;;;;;2.5;0.7;;;;;;;11.27;90.04297;945.0919;;;;
2020/02/10 06:57:11;;;;;;;3.8;0.6;;;;;;;10.33;94.17285;945.0914;;;;
2020/02/10 07:00:14;;;;;;;4.4;0.8;;;;;;;9.45;97.04785;945.0555;;;;
2020/02/10 07:06:50;;;;;;;4.3;1.2;;;;;;;8.83;100;944.5938;;;;
2020/02/10 07:09:17;;;;;;;2.5;0.8;;;;;;;8.83;100;944.8171;;;;
2020/02/10 07:13:11;;;;;;;6.6;1.2;;;;;;;8.63;100;944.8669;;;;
2020/02/10 07:17:12;;;;;;;3;0.7;;;;;;;8.72;100;944.7835;;;;
2020/02/10 07:19:15;;;;;;;4.1;0.9;;;;;;;8.78;100;944.7714;;;;
2020/02/10 07:21:22;;;;;;;2.2;0.8;;;;;;;8.78;100;944.5886;;;;
2020/02/10 07:28:35;;;;;;;6.9;1.3;;;;;;;8.62;100;945.0262;;;;
2020/02/10 07:31:03;;;;;;;5.9;1;;;;;;;8.6;100;945.4726;;;;
2020/02/10 07:33:32;;;;;;;2.4;0.8;;;;;;;8.63;100;944.9432;;;;
2020/02/10 07:40:42;;;;;;;4.7;1.8;;;;;;;8.73;100;944.824;;;;
2020/02/10 07:43:12;;;;;;;3.1;1.2;;;;;;;8.67;100;944.6014;;;;
2020/02/10 07:45:44;;;;;;;4;1.8;;;;;;;8.66;100;944.7046;;;;
2020/02/10 07:50:23;;;;;;;5.4;3.3;;;;;;;8.62;100;944.6802;;;;
2020/02/10 07:52:52;;;;;;;6.8;4.8;;;;;;;8.59;100;944.6842;;;;
2020/02/10 07:57:42;;;;;;;8.6;6.5;;;;;;;8.51;100;944.8236;;;;
2020/02/10 08:00:52;;;;;;;9.6;3.6;;;;;;;8.43;100;945.0659;;;;
2020/02/10 08:05:09;;;;;;;3.1;0.9;;;;;;;8.2;100;944.8451;;;;
2020/02/10 08:07:33;;;;;;;9;0.9;;;;;;;-144.8;100;1148.844;;;;
2020/02/10 08:13:18;;;;;;;3;0.8;;;;;;;-144.8;100;1148.844;;;;
2020/02/10 08:17:19;;;;;;;3.8;0.8;;;;;;;-144.8;100;1148.844;;;;
2020/02/10 08:19:57;;;;;;;2.4;0.7;;;;;;;-144.8;100;1148.844;;;;
2020/02/10 08:22:53;;;;;;;5.1;0.6;;;;;;;-144.8;100;1148.844;;;;
2020/02/10 08:27:02;;;;;;;4.4;0.5;;;;;;;-144.8;100;1148.844;;;;
2020/02/10 08:29:31;;;;;;;3.1;0.6;;;;;;;-144.8;100;1148.844;;;;
2020/02/10 08:31:54;;;;;;;1.9;0.6;;;;;;;-144.8;100;1148.844;;;;
2020/02/10 08:36:33;;;;;;;1.8;0.5;;;;;;;-144.8;100;1148.844;;;;
2020/02/10 08:46:16;;;;;;;3.7;1.1;;;;;;;-144.8;100;1148.844;;;;
2020/02/10 08:49:51;;;;;;;2.7;1;;;;;;;-144.8;100;1148.844;;;;
2020/02/10 08:51:11;;;;;;;3.5;1;;;;;;;-144.8;100;1148.844;;;;
2020/02/10 08:58:22;;;;;;;4.2;1.3;;;;;;;-144.8;100;1148.844;;;;
2020/02/10 09:04:14;;;;;;;4.1;1.3;;;;;;;-144.8;100;1148.844;;;;
2020/02/10 09:09:16;;;;;;;4.9;1.4;;;;;;;-144.8;100;1148.844;;;;
2020/02/10 09:23:35;;;;;;;4.3;1.3;;;;;;;-144.8;100;1148.844;;;;
2020/02/10 09:26:05;;;;;;;5;1.4;;;;;;;-144.8;100;1148.844;;;;
2020/02/10 09:28:22;;;;;;;6.9;1.4;;;;;;;-144.8;100;1148.844;;;;
2020/02/10 09:40:48;;;;;;;7.6;2.1;;;;;;;-144.8;100;1148.844;;;;
2020/02/10 09:43:30;;;;;;;6.7;2.1;;;;;;;-144.8;100;1148.844;;;;
2020/02/10 09:48:05;;;;;;;4.7;1.5;;;;;;;-144.8;100;1148.844;;;;
2020/02/10 09:52:34;;;;;;;4.3;1.1;;;;;;;-144.8;100;1148.844;;;;
2020/02/10 09:55:14;;;;;;;4.4;1;;;;;;;-144.8;100;1148.844;;;;
2020/02/10 10:00:12;;;;;;;3.6;0.8;;;;;;;-144.8;100;1148.844;;;;
2020/02/10 10:04:43;;;;;;;4.2;1;;;;;;;-144.8;100;1148.844;;;;
2020/02/10 10:14:51;;;;;;;5.5;1.2;;;;;;;-144.8;100;1148.844;;;;
2020/02/10 10:19:13;;;;;;;5.4;1.3;;;;;;;-144.8;100;1148.844;;;;
2020/02/10 10:21:48;;;;;;;4.4;1.2;;;;;;;-144.8;100;1148.844;;;;
2020/02/10 10:26:42;;;;;;;3.8;1.3;;;;;;;-144.8;100;1148.844;;;;
2020/02/10 10:30:46;;;;;;;5.3;1.7;;;;;;;-144.8;100;1148.844;;;;
2020/02/10 10:31:34;;;;;;;4.5;1.2;;;;;;;-144.8;100;1148.844;;;;
2020/02/10 10:36:29;;;;;;;4.7;1.3;;;;;;;-144.8;100;1148.844;;;;
2020/02/10 10:41:38;;;;;;;3.6;1.3;;;;;;;-144.8;100;1148.844;;;;
2020/02/10 10:46:02;;;;;;;5.1;1.4;;;;;;;-144.8;100;1148.844;;;;
2020/02/10 10:48:31;;;;;;;5.3;1.3;;;;;;;-144.8;100;1148.844;;;;
2020/02/10 10:53:16;;;;;;;6.3;1.6;;;;;;;-144.8;100;1148.844;;;;
2020/02/10 10:58:42;;;;;;;4.3;1.4;;;;;;;-144.8;100;1148.844;;;;
2020/02/10 11:03:15;;;;;;;4.2;1.1;;;;;;;-144.8;100;1148.844;;;;
2020/02/10 11:05:58;;;;;;;3.7;1;;;;;;;-144.8;100;1148.844;;;;
2020/02/10 11:07:53;;;;;;;5.1;1.2;;;;;;;-144.8;100;1148.844;;;;
2020/02/10 11:10:24;;;;;;;4.9;1;;;;;;;-144.8;100;1148.844;;;;
2020/02/10 11:15:14;;;;;;;3.2;1.1;;;;;;;-144.8;100;1148.844;;;;
2020/02/10 11:17:55;;;;;;;4.9;1.3;;;;;;;-144.8;100;1148.844;;;;
2020/02/10 11:20:44;;;;;;;3.2;1.2;;;;;;;-144.8;100;1148.844;;;;
2020/02/10 11:22:31;;;;;;;4.2;1;;;;;;;-144.8;100;1148.844;;;;
2020/02/10 11:27:21;;;;;;;3.9;1.3;;;;;;;-144.8;100;1148.844;;;;
2020/02/10 11:29:43;;;;;;;4.3;1.5;;;;;;;-144.8;100;1148.844;;;;
2020/02/10 11:32:06;;;;;;;4.1;1.3;;;;;;;-144.8;100;1148.844;;;;
2020/02/10 11:34:27;;;;;;;3.9;1.4;;;;;;;-144.8;100;1148.844;;;;
2020/02/10 11:41:57;;;;;;;4;1.1;;;;;;;-144.8;100;1148.844;;;;
2020/02/10 11:49:06;;;;;;;7;4.3;;;;;;;-144.8;100;1148.844;;;;
2020/02/10 11:51:34;;;;;;;5.5;2.3;;;;;;;-144.8;100;1148.844;;;;
2020/02/10 11:56:36;;;;;;;6.4;3.4;;;;;;;-144.8;100;1148.844;;;;
2020/02/10 11:58:43;;;;;;;7.5;2.8;;;;;;;-144.8;100;1148.844;;;;
2020/02/10 12:10:51;;;;;;;4.8;2;;;;;;;-144.8;100;1148.844;;;;
2020/02/10 12:13:46;;;;;;;6;1.8;;;;;;;-144.8;100;1148.844;;;;
2020/02/10 12:15:49;;;;;;;6.6;2.6;;;;;;;-144.8;100;1148.844;;;;
2020/02/10 12:18:06;;;;;;;8.8;2.4;;;;;;;-144.8;100;1148.844;;;;
2020/02/10 12:25:28;;;;;;;5.5;1.6;;;;;;;-144.8;100;1148.844;;;;
2020/02/10 12:27:55;;;;;;;4.6;1.7;;;;;;;-144.8;100;1148.844;;;;
2020/02/10 12:30:08;;;;;;;5.5;1.8;;;;;;;-144.8;100;1148.844;;;;
2020/02/10 12:32:35;;;;;;;5;1.5;;;;;;;-144.8;100;1148.844;;;;
2020/02/10 12:37:36;;;;;;;5;1.9;;;;;;;-144.8;100;1148.844;;;;
2020/02/10 12:40:51;;;;;;;6.5;1.9;;;;;;;-144.8;100;1148.844;;;;
2020/02/10 12:43:16;;;;;;;6.1;1.9;;;;;;;-144.8;100;1148.844;;;;
2020/02/10 12:45:43;;;;;;;4.4;1.3;;;;;;;-144.8;100;1148.844;;;;
2020/02/10 12:48:14;;;;;;;5.7;1.6;;;;;;;-144.8;100;1148.844;;;;
2020/02/10 12:50:33;;;;;;;4.4;1.5;;;;;;;-144.8;100;1148.844;;;;
2020/02/10 12:53:16;;;;;;;3.8;1.7;;;;;;;-144.8;100;1148.844;;;;
2020/02/10 13:00:42;;;;;;;4.7;1.6;;;;;;;-144.8;100;1148.844;;;;
2020/02/10 13:07:37;;;;;;;5.7;1.7;;;;;;;-144.8;100;1148.844;;;;
2020/02/10 13:12:58;;;;;;;5.9;1.8;;;;;;;-144.8;100;1148.844;;;;
2020/02/10 13:15:31;;;;;;;5.1;1.7;;;;;;;-144.8;100;1148.844;;;;
2020/02/10 13:17:16;;;;;;;4;1.5;;;;;;;-144.8;100;1148.844;;;;
2020/02/10 13:26:56;;;;;;;3.8;1.3;;;;;;;-144.8;100;1148.844;;;;
2020/02/10 13:29:18;;;;;;;5.1;1.6;;;;;;;-144.8;100;1148.844;;;;
2020/02/10 13:34:18;;;;;;;4.7;1.7;;;;;;;-144.8;100;1148.844;;;;
2020/02/10 13:37:00;;;;;;;3.6;1.3;;;;;;;-144.8;100;1148.844;;;;
2020/02/10 13:39:11;;;;;;;4.8;1.4;;;;;;;-144.8;100;1148.844;;;;
2020/02/10 13:41:57;;;;;;;5.1;1.6;;;;;;;-144.8;100;1148.844;;;;
2020/02/10 13:44:08;;;;;;;4;1.4;;;;;;;-144.8;100;1148.844;;;;
2020/02/10 13:46:29;;;;;;;3.8;1.4;;;;;;;-144.8;100;1148.844;;;;
2020/02/10 13:48:58;;;;;;;3.2;1.2;;;;;;;-144.8;100;1148.844;;;;
2020/02/10 13:51:18;;;;;;;4;1.5;;;;;;;-144.8;100;1148.844;;;;
2020/02/10 14:04:54;;;;;;;5.7;1.7;;;;;;;-144.8;100;1148.844;;;;
2020/02/10 14:05:46;;;;;;;3.7;1.3;;;;;;;-144.8;100;1148.844;;;;
2020/02/10 14:08:42;;;;;;;4.8;1.4;;;;;;;-144.8;100;1148.844;;;;
2020/02/10 14:10:46;;;;;;;5.1;1.3;;;;;;;-144.8;100;1148.844;;;;
2020/02/10 14:20:39;;;;;;;5.3;1.9;;;;;;;-144.8;100;1148.844;;;;
2020/02/10 14:22:51;;;;;;;4.9;1.8;;;;;;;-144.8;100;1148.844;;;;
2020/02/10 14:25:13;;;;;;;4;1.4;;;;;;;-144.8;100;1148.844;;;;
2020/02/10 14:27:50;;;;;;;6;1.4;;;;;;;-144.8;100;1148.844;;;;
2020/02/10 14:32:28;;;;;;;4.2;1.6;;;;;;;-144.8;100;1148.844;;;;
2020/02/10 14:37:15;;;;;;;5;1.5;;;;;;;-144.8;100;1148.844;;;;
2020/02/10 14:42:28;;;;;;;5.2;1.5;;;;;;;-144.8;100;1148.844;;;;
2020/02/10 14:50:20;;;;;;;4.1;1.3;;;;;;;-144.8;100;1148.844;;;;
2020/02/10 14:52:16;;;;;;;5.1;1.5;;;;;;;-144.8;100;1148.844;;;;
2020/02/10 14:54:48;;;;;;;3.5;1.3;;;;;;;-144.8;100;1148.844;;;;
2020/02/10 14:59:24;;;;;;;4.5;1.4;;;;;;;-144.8;100;1148.844;;;;
2020/02/10 15:09:20;;;;;;;4.8;2.3;;;;;;;-144.8;100;1148.844;;;;
2020/02/10 15:11:34;;;;;;;4.3;1.6;;;;;;;-144.8;100;1148.844;;;;
2020/02/10 15:13:58;;;;;;;4.8;2;;;;;;;-144.8;100;1148.844;;;;
2020/02/10 15:23:36;;;;;;;3.9;1.7;;;;;;;-144.8;100;1148.844;;;;
2020/02/10 15:28:34;;;;;;;5.5;1.6;;;;;;;-144.8;100;1148.844;;;;
2020/02/10 15:30:53;;;;;;;5.6;1.6;;;;;;;-144.8;100;1148.844;;;;
2020/02/10 15:40:50;;;;;;;5.7;1.7;;;;;;;-144.8;100;1148.844;;;;
2020/02/10 15:48:21;;;;;;;4.3;1.3;;;;;;;-144.8;100;1148.844;;;;
2020/02/10 15:51:08;;;;;;;4.6;1.6;;;;;;;-144.8;100;1148.844;;;;
2020/02/10 15:53:11;;;;;;;3.9;1.3;;;;;;;-144.8;100;1148.844;;;;
2020/02/10 16:00:17;;;;;;;2.8;1.3;;;;;;;-144.8;100;1148.844;;;;
2020/02/10 16:08:51;;;;;;;4.9;1.8;;;;;;;-144.8;100;1148.844;;;;
2020/02/10 16:10:09;;;;;;;4.5;1.5;;;;;;;-144.8;100;1148.844;;;;
2020/02/10 16:17:49;;;;;;;5;1.9;;;;;;;-144.8;100;1148.844;;;;
2020/02/10 16:20:00;;;;;;;4.6;1.7;;;;;;;-144.8;100;1148.844;;;;
2020/02/10 16:25:43;;;;;;;5.3;1.7;;;;;;;-144.8;100;1148.844;;;;
2020/02/10 16:29:22;;;;;;;6.3;1.8;;;;;;;-144.8;100;1148.844;;;;
2020/02/10 16:31:44;;;;;;;6.9;2.3;;;;;;;-144.8;100;1148.844;;;;
2020/02/10 16:35:54;;;;;;;6.1;2.2;;;;;;;-144.8;100;1148.844;;;;
2020/02/10 16:38:19;;;;;;;6;2.2;;;;;;;-144.8;100;1148.844;;;;
2020/02/10 16:40:45;;;;;;;7.3;2.1;;;;;;;-144.8;100;1148.844;;;;
2020/02/10 16:43:11;;;;;;;6.4;2;;;;;;;-144.8;100;1148.844;;;;
2020/02/10 16:45:36;;;;;;;7.7;2.2;;;;;;;-144.8;100;1148.844;;;;
2020/02/10 16:48:01;;;;;;;6.5;1.8;;;;;;;-144.8;100;1148.844;;;;
2020/02/10 16:50:26;;;;;;;6.8;2.4;;;;;;;-144.8;100;1148.844;;;;
2020/02/10 16:52:52;;;;;;;6.8;2.2;;;;;;;-144.8;100;1148.844;;;;
2020/02/10 16:55:16;;;;;;;9.1;2.2;;;;;;;-144.8;100;1148.844;;;;
2020/02/10 16:57:42;;;;;;;8.5;2.5;;;;;;;-144.8;100;1148.844;;;;
2020/02/10 17:00:07;;;;;;;6.2;2.2;;;;;;;-144.8;100;1148.844;;;;
2020/02/10 17:02:33;;;;;;;7.9;2.2;;;;;;;-144.8;100;1148.844;;;;
2020/02/10 17:04:58;;;;;;;8.6;2.3;;;;;;;-144.8;100;1148.844;;;;
2020/02/10 17:07:23;;;;;;;9.3;2.7;;;;;;;-144.8;100;1148.844;;;;
2020/02/10 17:09:48;;;;;;;7.9;2.6;;;;;;;-144.8;100;1148.844;;;;
2020/02/10 17:12:13;;;;;;;9;2.8;;;;;;;-144.8;100;1148.844;;;;
2020/02/10 17:14:38;;;;;;;9.9;3.1;;;;;;;-144.8;100;1148.844;;;;
2020/02/10 17:17:03;;;;;;;8.2;2.6;;;;;;;-144.8;100;1148.844;;;;
2020/02/10 17:19:28;;;;;;;10.4;3;;;;;;;-144.8;100;1148.844;;;;
2020/02/10 17:21:54;;;;;;;11.1;3.2;;;;;;;-144.8;100;1148.844;;;;
2020/02/10 17:24:20;;;;;;;13.5;6.8;;;;;;;-144.8;100;1148.844;;;;
2020/02/10 17:26:45;;;;;;;14.5;5;;;;;;;-144.8;100;1148.844;;;;
2020/02/10 17:29:10;;;;;;;10.8;3.5;;;;;;;-144.8;100;1148.844;;;;
2020/02/10 17:31:35;;;;;;;9.6;3;;;;;;;-144.8;100;1148.844;;;;
2020/02/10 17:34:00;;;;;;;11.7;3.4;;;;;;;-144.8;100;1148.844;;;;
2020/02/10 17:36:25;;;;;;;9.7;3.1;;;;;;;-144.8;100;1148.844;;;;
2020/02/10 17:38:50;;;;;;;10.1;3.2;;;;;;;-144.8;100;1148.844;;;;
2020/02/10 17:41:15;;;;;;;11.7;3.8;;;;;;;-144.8;100;1148.844;;;;
2020/02/10 17:43:40;;;;;;;11.7;3.4;;;;;;;-144.8;100;1148.844;;;;
2020/02/10 17:46:05;;;;;;;10.1;3;;;;;;;-144.8;100;1148.844;;;;
2020/02/10 17:48:53;;;;;;;11.2;3.5;;;;;;;-144.8;100;1148.844;;;;
2020/02/10 17:51:06;;;;;;;12.7;3.5;;;;;;;-144.8;100;1148.844;;;;
2020/02/10 18:00:50;;;;;;;15.5;3.9;;;;;;;-144.8;100;1148.844;;;;
2020/02/10 18:06:35;;;;;;;14.5;4;;;;;;;-144.8;100;1148.844;;;;
2020/02/10 18:10:18;;;;;;;12.7;3.7;;;;;;;-144.8;100;1148.844;;;;
2020/02/10 18:15:17;;;;;;;11.5;3.8;;;;;;;-144.8;100;1148.844;;;;
2020/02/10 18:20:57;;;;;;;12.6;3.5;;;;;;;-144.8;100;1148.844;;;;
2020/02/10 18:22:33;;;;;;;13;4;;;;;;;-144.8;100;1148.844;;;;
2020/02/10 18:24:55;;;;;;;11.5;3.4;;;;;;;-144.8;100;1148.844;;;;
2020/02/10 18:27:25;;;;;;;12.5;3.7;;;;;;;-144.8;100;1148.844;;;;
2020/02/10 18:29:56;;;;;;;13.5;3.8;;;;;;;-144.8;100;1148.844;;;;
2020/02/10 18:32:20;;;;;;;12;3.8;;;;;;;-144.8;100;1148.844;;;;
2020/02/10 18:37:47;;;;;;;16.3;4.3;;;;;;;;;;;;;
2020/02/10 18:40:13;;;;;;;12;3.7;;;;;;;;;;;;;
2020/02/10 18:42:37;;;;;;;9.8;3.5;;;;;;;;;;;;;
2020/02/10 18:45:06;;;;;;;10.6;3;;;;;;;;;;;;;
2020/02/10 18:47:28;;;;;;;11;3.2;;;;;;;;;;;;;
2020/02/10 18:49:53;;;;;;;10.7;3.6;;;;;;;;;;;;;
2020/02/10 18:52:18;;;;;;;11.9;3.6;;;;;;;;;;;;;
2020/02/10 18:54:43;;;;;;;11.7;4;;;;;;;;;;;;;
2020/02/10 18:57:08;;;;;;;10.7;3.6;;;;;;;;;;;;;
2020/02/10 18:59:33;;;;;;;9.3;3.1;;;;;;;;;;;;;
2020/02/10 19:01:58;;;;;;;8.8;3;;;;;;;;;;;;;
2020/02/10 19:04:23;;;;;;;8.6;3.1;;;;;;;;;;;;;
2020/02/10 19:06:49;;;;;;;11;3.4;;;;;;;;;;;;;
2020/02/10 19:09:13;;;;;;;10;3.4;;;;;;;;;;;;;
2020/02/10 19:11:38;;;;;;;9.6;3;;;;;;;;;;;;;
2020/02/10 19:14:04;;;;;;;9.7;3;;;;;;;;;;;;;
2020/02/10 19:16:39;;;;;;;9.3;2.8;;;;;;;;;;;;;
2020/02/10 19:18:56;;;;;;;10.6;3.3;;;;;;;;;;;;;
2020/02/10 19:21:19;;;;;;;10.6;3.3;;;;;;;;;;;;;
2020/02/10 19:23:44;;;;;;;10.1;3.1;;;;;;;;;;;;;
2020/02/10 19:26:09;;;;;;;11.2;3.5;;;;;;;;;;;;;
2020/02/10 19:28:34;;;;;;;12.2;3.7;;;;;;;;;;;;;
2020/02/10 19:30:59;;;;;;;10.4;3.5;;;;;;;;;;;;;
2020/02/10 19:33:25;;;;;;;12;3.8;;;;;;;;;;;;;
2020/02/10 19:35:50;;;;;;;11.2;3.5;;;;;;;;;;;;;
2020/02/10 19:38:15;;;;;;;12.2;3.7;;;;;;;;;;;;;
2020/02/10 19:40:40;;;;;;;9.4;3.4;;;;;;;;;;;;;
2020/02/10 19:43:05;;;;;;;11.8;3.5;;;;;;;;;;;;;
2020/02/10 19:45:30;;;;;;;14.4;4;;;;;;;;;;;;;
2020/02/10 19:47:55;;;;;;;11.4;3.7;;;;;;;;;;;;;
2020/02/10 19:50:20;;;;;;;9.8;3.2;;;;;;;;;;;;;
2020/02/10 19:52:45;;;;;;;9.3;3.1;;;;;;;;;;;;;
2020/02/10 19:55:11;;;;;;;10.3;3.6;;;;;;;;;;;;;
2020/02/10 19:57:36;;;;;;;10.3;3.1;;;;;;;;;;;;;